createdAt,value
2018-03-25T00:01:06.961Z,18.03
2018-03-25T00:03:36.700Z,18.33
2018-03-25T00:06:05.706Z,17.00
2018-03-25T00:08:35.493Z,18.23
2018-03-25T00:11:05.235Z,16.57
2018-03-25T00:13:33.463Z,16.67
2018-03-25T00:16:01.729Z,17.83
2018-03-25T00:18:29.952Z,16.40
2018-03-25T00:20:58.198Z,16.20
2018-03-25T00:23:27.236Z,15.90
2018-03-25T00:25:55.483Z,16.50
2018-03-25T00:28:23.712Z,17.00
2018-03-25T00:30:52.758Z,15.97
2018-03-25T00:33:21.007Z,15.73
2018-03-25T00:35:49.228Z,16.07
2018-03-25T00:38:18.468Z,16.90
2018-03-25T00:40:46.721Z,17.07
2018-03-25T00:43:14.944Z,17.67
2018-03-25T00:45:43.591Z,18.57
2018-03-25T00:48:13.181Z,18.07
2018-03-25T00:50:41.285Z,16.57
2018-03-25T00:53:09.563Z,15.77
2018-03-25T00:55:37.809Z,16.77
2018-03-25T00:58:07.555Z,17.77
2018-03-25T01:00:37.183Z,16.83
2018-03-25T01:03:05.311Z,17.80
2018-03-25T01:05:33.537Z,17.17
2018-03-25T01:08:02.011Z,16.47
2018-03-25T01:10:30.636Z,17.83
2018-03-25T01:12:59.004Z,18.47
2018-03-25T01:15:34.140Z,17.37
2018-03-25T01:18:02.368Z,16.13
2018-03-25T01:20:31.010Z,15.63
2018-03-25T01:22:59.471Z,16.80
2018-03-25T01:25:28.113Z,17.17
2018-03-25T01:27:56.346Z,17.57
2018-03-25T01:30:24.821Z,16.80
2018-03-25T01:32:53.044Z,15.93
2018-03-25T01:35:21.279Z,14.50
2018-03-25T01:37:49.640Z,16.20
2018-03-25T01:40:18.268Z,14.70
2018-03-25T01:42:46.892Z,18.20
2018-03-25T01:45:15.562Z,17.23
2018-03-25T01:47:43.809Z,16.67
2018-03-25T01:50:12.032Z,16.07
2018-03-25T01:52:40.415Z,17.13
2018-03-25T01:55:10.162Z,13.87
2018-03-25T01:57:39.553Z,17.40
2018-03-25T02:00:11.718Z,16.87
2018-03-25T02:02:39.962Z,16.27
2018-03-25T02:05:08.193Z,16.43
2018-03-25T02:07:38.139Z,15.53
2018-03-25T02:10:07.124Z,17.60
2018-03-25T02:12:35.352Z,16.60
2018-03-25T02:15:07.561Z,15.60
2018-03-25T02:17:36.578Z,15.60
2018-03-25T02:20:04.809Z,16.10
2018-03-25T02:22:33.842Z,16.83
2018-03-25T02:25:02.078Z,17.40
2018-03-25T02:27:31.086Z,18.33
2018-03-25T02:29:59.348Z,18.00
2018-03-25T02:32:27.606Z,16.35
2018-03-25T02:34:57.203Z,18.77
2018-03-25T02:37:26.736Z,20.23
2018-03-25T02:39:55.609Z,19.85
2018-03-25T02:42:23.849Z,19.10
2018-03-25T02:45:01.851Z,18.83
2018-03-25T02:47:30.720Z,19.37
2018-03-25T02:49:59.009Z,19.03
2018-03-25T02:52:28.374Z,19.47
2018-03-25T02:54:57.002Z,18.50
2018-03-25T02:57:25.234Z,21.20
2018-03-25T02:59:53.613Z,21.35
2018-03-25T03:02:22.619Z,20.70
2018-03-25T03:04:50.867Z,21.80
2018-03-25T03:07:19.171Z,20.02
2018-03-25T03:09:47.414Z,20.30
2018-03-25T03:12:17.171Z,19.40
2018-03-25T03:14:45.593Z,18.80
2018-03-25T03:17:13.846Z,18.75
2018-03-25T03:19:43.222Z,17.90
2018-03-25T03:22:11.492Z,18.27
2018-03-25T03:24:39.728Z,17.25
2018-03-25T03:27:07.964Z,16.90
2018-03-25T03:29:38.037Z,17.57
2018-03-25T03:32:06.276Z,19.00
2018-03-25T03:34:34.508Z,16.45
2018-03-25T03:37:04.691Z,16.83
2018-03-25T03:39:34.327Z,16.87
2018-03-25T03:42:02.571Z,17.08
2018-03-25T03:44:31.138Z,17.08
2018-03-25T03:46:59.376Z,16.50
2018-03-25T03:49:28.967Z,16.75
2018-03-25T03:51:57.898Z,16.80
2018-03-25T03:54:26.902Z,18.60
2018-03-25T03:56:55.551Z,16.85
2018-03-25T03:59:27.006Z,17.07
2018-03-25T04:03:06.440Z,16.73
2018-03-25T04:05:34.723Z,17.80
2018-03-25T04:08:04.464Z,16.75
2018-03-25T04:10:32.724Z,17.52
2018-03-25T04:13:01.932Z,17.42
2018-03-25T04:15:30.170Z,18.52
2018-03-25T04:17:58.405Z,19.92
2018-03-25T04:20:27.070Z,18.75
2018-03-25T04:22:56.078Z,19.40
2018-03-25T04:25:24.326Z,18.75
2018-03-25T04:27:53.151Z,19.60
2018-03-25T04:30:21.386Z,18.02
2018-03-25T04:32:51.184Z,17.87
2018-03-25T04:35:20.780Z,17.17
2018-03-25T04:37:48.892Z,18.42
2018-03-25T04:40:17.146Z,17.25
2018-03-25T04:42:46.272Z,17.35
2018-03-25T04:45:15.283Z,18.10
2018-03-25T04:47:44.882Z,17.80
2018-03-25T04:50:14.459Z,17.42
2018-03-25T04:52:42.710Z,17.75
2018-03-25T04:55:10.948Z,19.17
2018-03-25T04:57:39.916Z,17.42
2018-03-25T05:00:08.162Z,18.92
2018-03-25T05:02:37.160Z,18.73
2018-03-25T05:05:07.592Z,18.45
2018-03-25T05:07:37.471Z,18.00
2018-03-25T05:10:06.119Z,16.37
2018-03-25T05:12:34.421Z,17.45
2018-03-25T05:15:02.662Z,17.65
2018-03-25T05:17:30.902Z,16.83
2018-03-25T05:19:59.172Z,18.98
2018-03-25T05:22:27.408Z,18.77
2018-03-25T05:24:55.645Z,18.25
2018-03-25T05:27:24.028Z,16.70
2018-03-25T05:29:52.261Z,15.77
2018-03-25T05:32:20.492Z,16.77
2018-03-25T05:34:49.533Z,16.90
2018-03-25T05:37:17.774Z,18.02
2018-03-25T05:39:46.009Z,17.17
2018-03-25T05:42:15.052Z,18.15
2018-03-25T05:44:43.690Z,19.45
2018-03-25T05:47:12.372Z,18.60
2018-03-25T05:49:41.096Z,16.12
2018-03-25T05:52:09.330Z,17.40
2018-03-25T05:54:37.560Z,18.23
2018-03-25T05:57:07.218Z,17.45
2018-03-25T05:59:35.460Z,16.90
2018-03-25T06:02:03.692Z,17.37
2018-03-25T06:04:31.979Z,17.50
2018-03-25T06:07:00.223Z,17.83
2018-03-25T06:09:28.866Z,18.92
2018-03-25T06:11:57.443Z,18.00
2018-03-25T06:14:25.676Z,19.17
2018-03-25T06:16:53.916Z,17.70
2018-03-25T06:19:23.713Z,17.17
2018-03-25T06:21:51.962Z,16.98
2018-03-25T06:24:20.594Z,16.15
2018-03-25T06:26:49.207Z,16.30
2018-03-25T06:29:17.828Z,16.70
2018-03-25T06:31:46.078Z,16.25
2018-03-25T06:34:14.608Z,16.67
2018-03-25T06:36:42.845Z,16.60
2018-03-25T06:39:11.077Z,17.23
2018-03-25T06:41:39.350Z,22.10
2018-03-25T06:44:07.581Z,20.63
2018-03-25T06:46:35.818Z,26.60
2018-03-25T06:49:05.148Z,26.07
2018-03-25T06:51:33.380Z,25.47
2018-03-25T06:54:01.613Z,28.50
2018-03-25T06:56:29.900Z,26.60
2018-03-25T06:58:59.262Z,25.87
2018-03-25T07:01:28.270Z,23.80
2018-03-25T07:03:56.559Z,22.77
2018-03-25T07:06:24.802Z,21.27
2018-03-25T07:08:53.053Z,22.13
2018-03-25T07:11:21.923Z,19.67
2018-03-25T07:13:50.153Z,19.70
2018-03-25T07:16:18.398Z,17.77
2018-03-25T07:18:46.657Z,17.10
2018-03-25T07:21:14.898Z,17.73
2018-03-25T07:23:43.137Z,17.80
2018-03-25T07:26:11.740Z,18.83
2018-03-25T07:28:40.378Z,18.10
2018-03-25T07:31:08.621Z,16.47
2018-03-25T07:33:36.897Z,17.83
2018-03-25T07:36:05.150Z,17.00
2018-03-25T07:38:34.136Z,17.93
2018-03-25T07:41:02.425Z,17.77
2018-03-25T07:43:31.087Z,15.83
2018-03-25T07:46:00.094Z,16.80
2018-03-25T07:48:29.752Z,16.07
2018-03-25T07:50:57.980Z,17.20
2018-03-25T07:53:26.227Z,15.77
2018-03-25T07:55:54.497Z,16.10
2018-03-25T07:58:22.739Z,15.83
2018-03-25T08:00:50.980Z,16.50
2018-03-25T08:03:19.458Z,15.90
2018-03-25T08:05:48.085Z,15.97
2018-03-25T08:08:16.339Z,15.40
2018-03-25T08:10:45.066Z,17.10
2018-03-25T08:13:13.692Z,15.93
2018-03-25T08:15:42.711Z,16.53
2018-03-25T08:18:10.999Z,16.00
2018-03-25T08:20:39.996Z,15.70
2018-03-25T08:23:08.247Z,16.67
2018-03-25T08:25:37.309Z,15.20
2018-03-25T08:28:05.544Z,15.47
2018-03-25T08:30:34.567Z,15.60
2018-03-25T08:33:03.803Z,16.90
2018-03-25T08:35:32.038Z,16.63
2018-03-25T08:38:00.264Z,15.37
2018-03-25T08:40:29.879Z,16.20
2018-03-25T08:42:58.008Z,17.23
2018-03-25T08:45:26.250Z,15.77
2018-03-25T08:47:54.543Z,16.53
2018-03-25T08:50:22.783Z,16.80
2018-03-25T08:52:51.427Z,16.90
2018-03-25T08:55:21.446Z,17.07
2018-03-25T08:57:49.562Z,17.30
2018-03-25T09:00:17.806Z,17.70
2018-03-25T09:02:46.857Z,16.53
2018-03-25T09:05:15.098Z,16.57
2018-03-25T09:07:43.328Z,17.47
2018-03-25T09:10:11.832Z,18.93
2018-03-25T09:12:40.065Z,18.40
2018-03-25T09:15:08.296Z,17.63
2018-03-25T09:17:36.590Z,18.13
2018-03-25T09:20:05.598Z,17.80
2018-03-25T09:22:33.828Z,17.10
2018-03-25T09:25:02.120Z,17.47
2018-03-25T09:27:30.353Z,17.60
2018-03-25T09:30:00.103Z,17.40
2018-03-25T09:32:28.376Z,18.93
2018-03-25T09:34:57.390Z,19.27
2018-03-25T09:37:26.775Z,17.77
2018-03-25T09:39:55.049Z,17.60
2018-03-25T09:42:24.049Z,18.00
2018-03-25T09:44:53.636Z,17.67
2018-03-25T09:47:21.798Z,18.03
2018-03-25T09:49:50.042Z,18.60
2018-03-25T09:52:19.048Z,18.77
2018-03-25T09:54:48.441Z,18.57
2018-03-25T09:57:17.068Z,17.83
2018-03-25T09:59:45.301Z,19.40
2018-03-25T10:02:18.539Z,20.30
2018-03-25T10:04:46.817Z,18.40
2018-03-25T10:07:15.781Z,20.03
2018-03-25T10:09:45.568Z,19.47
2018-03-25T10:12:13.819Z,18.47
2018-03-25T10:14:42.065Z,21.13
2018-03-25T10:17:10.366Z,19.90
2018-03-25T10:19:40.126Z,19.77
2018-03-25T10:22:08.753Z,21.80
2018-03-25T10:24:37.031Z,20.20
2018-03-25T10:27:05.268Z,19.30
2018-03-25T10:29:35.023Z,20.70
2018-03-25T10:32:04.804Z,19.23
2018-03-25T10:34:33.048Z,19.27
2018-03-25T10:37:01.679Z,18.77
2018-03-25T10:39:30.271Z,19.30
2018-03-25T10:41:59.848Z,21.20
2018-03-25T10:44:27.964Z,18.20
2018-03-25T10:46:56.251Z,21.60
2018-03-25T10:49:24.480Z,20.67
2018-03-25T10:51:54.224Z,20.57
2018-03-25T10:54:22.657Z,20.63
2018-03-25T10:56:52.239Z,18.50
2018-03-25T10:59:20.353Z,17.73
2018-03-25T11:01:50.150Z,16.70
2018-03-25T11:04:18.396Z,17.50
2018-03-25T11:06:46.632Z,15.57
2018-03-25T11:09:15.004Z,15.47
2018-03-25T11:11:43.240Z,14.90
2018-03-25T11:14:11.486Z,16.77
2018-03-25T11:16:40.889Z,16.90
2018-03-25T11:19:09.124Z,16.63
2018-03-25T11:21:38.703Z,16.23
2018-03-25T11:24:07.246Z,15.93
2018-03-25T11:26:35.482Z,16.90
2018-03-25T11:29:04.109Z,17.90
2018-03-25T11:31:32.527Z,16.13
2018-03-25T11:34:00.757Z,18.00
2018-03-25T11:36:29.003Z,18.83
2018-03-25T11:38:58.071Z,16.43
2018-03-25T11:41:26.318Z,16.40
2018-03-25T11:43:55.321Z,17.37
2018-03-25T11:46:24.598Z,17.10
2018-03-25T11:48:52.838Z,17.67
2018-03-25T11:51:21.091Z,17.20
2018-03-25T11:53:49.720Z,19.63
2018-03-25T11:56:19.088Z,17.30
2018-03-25T11:58:48.864Z,16.73
2018-03-25T12:01:17.104Z,17.50
2018-03-25T12:03:46.862Z,18.20
2018-03-25T12:06:15.704Z,18.03
2018-03-25T12:08:45.310Z,18.80
2018-03-25T12:11:13.460Z,19.37
2018-03-25T12:13:43.464Z,17.30
2018-03-25T12:16:12.100Z,17.93
2018-03-25T12:18:40.346Z,18.53
2018-03-25T12:21:09.762Z,19.70
2018-03-25T12:23:38.011Z,17.67
2018-03-25T12:26:07.764Z,19.07
2018-03-25T12:28:39.429Z,19.07
2018-03-25T12:31:08.061Z,18.70
2018-03-25T12:33:37.651Z,18.67
2018-03-25T12:36:06.571Z,17.73
2018-03-25T12:38:34.814Z,17.47
2018-03-25T12:41:03.045Z,18.07
2018-03-25T12:43:32.808Z,17.83
2018-03-25T12:46:00.926Z,19.73
2018-03-25T12:48:30.694Z,18.30
2018-03-25T12:50:59.121Z,19.60
2018-03-25T12:53:28.714Z,18.97
2018-03-25T12:55:57.220Z,18.77
2018-03-25T12:58:26.849Z,19.60
2018-03-25T13:00:55.375Z,18.37
2018-03-25T13:03:23.605Z,19.33
2018-03-25T13:05:54.227Z,20.30
2018-03-25T13:08:22.462Z,19.57
2018-03-25T13:10:50.703Z,20.03
2018-03-25T13:13:20.108Z,20.40
2018-03-25T13:15:48.376Z,20.43
2018-03-25T13:18:16.590Z,20.03
2018-03-25T13:20:45.071Z,22.37
2018-03-25T13:23:13.319Z,20.67
2018-03-25T13:25:42.922Z,22.23
2018-03-25T13:28:13.032Z,20.27
2018-03-25T13:30:42.786Z,19.37
2018-03-25T13:33:11.024Z,18.73
2018-03-25T13:35:39.591Z,19.80
2018-03-25T13:38:07.860Z,20.33
2018-03-25T13:40:37.214Z,18.70
2018-03-25T13:43:05.727Z,18.77
2018-03-25T13:45:33.987Z,18.37
2018-03-25T13:48:02.237Z,17.93
2018-03-25T13:50:30.525Z,18.57
2018-03-25T13:52:58.769Z,17.97
2018-03-25T13:55:27.814Z,17.50
2018-03-25T13:57:56.453Z,18.27
2018-03-25T14:00:24.704Z,18.73
2018-03-25T14:02:52.950Z,18.30
2018-03-25T14:05:21.539Z,19.30
2018-03-25T14:07:50.604Z,20.50
2018-03-25T14:10:18.795Z,23.70
2018-03-25T14:12:49.120Z,21.00
2018-03-25T14:15:17.759Z,24.73
2018-03-25T14:17:46.756Z,19.50
2018-03-25T14:20:15.071Z,21.17
2018-03-25T14:22:44.082Z,20.90
2018-03-25T14:25:13.191Z,25.00
2018-03-25T14:27:42.539Z,24.07
2018-03-25T14:30:11.549Z,21.47
2018-03-25T14:32:40.583Z,23.20
2018-03-25T14:35:09.618Z,22.60
2018-03-25T14:37:38.424Z,26.60
2018-03-25T14:40:08.179Z,25.10
2018-03-25T14:42:39.428Z,25.57
2018-03-25T14:45:08.065Z,25.80
2018-03-25T14:47:37.710Z,25.53
2018-03-25T14:50:06.203Z,26.30
2018-03-25T14:52:34.446Z,26.67
2018-03-25T14:55:02.678Z,28.97
2018-03-25T14:57:31.279Z,28.13
2018-03-25T14:59:59.517Z,28.80
2018-03-25T15:02:27.749Z,28.10
2018-03-25T15:04:56.027Z,29.87
2018-03-25T15:07:25.024Z,26.10
2018-03-25T15:09:54.035Z,31.30
2018-03-25T15:12:23.928Z,31.97
2018-03-25T15:14:52.104Z,28.33
2018-03-25T15:17:20.345Z,29.07
2018-03-25T15:19:49.763Z,29.00
2018-03-25T15:22:19.356Z,28.00
2018-03-25T15:24:47.881Z,28.77
2018-03-25T15:27:16.908Z,27.13
2018-03-25T15:29:45.159Z,25.73
2018-03-25T15:32:14.171Z,24.70
2018-03-25T15:34:43.714Z,25.60
2018-03-25T15:37:13.296Z,25.80
2018-03-25T15:39:41.413Z,25.60
2018-03-25T15:42:09.691Z,26.20
2018-03-25T15:44:37.943Z,25.40
2018-03-25T15:47:06.958Z,24.90
2018-03-25T15:49:35.989Z,24.30
2018-03-25T15:52:04.228Z,23.93
2018-03-25T15:54:33.611Z,23.53
2018-03-25T15:57:01.882Z,24.40
2018-03-25T15:59:30.124Z,21.47
2018-03-25T16:01:59.725Z,22.90
2018-03-25T16:04:29.240Z,22.03
2018-03-25T16:06:58.714Z,22.37
2018-03-25T16:09:28.168Z,19.20
2018-03-25T16:11:57.837Z,19.07
2018-03-25T16:14:26.068Z,19.87
2018-03-25T16:16:55.104Z,19.93
2018-03-25T16:19:24.501Z,20.90
2018-03-25T16:21:53.133Z,19.70
2018-03-25T16:24:21.385Z,18.97
2018-03-25T16:26:50.053Z,18.40
2018-03-25T16:29:18.696Z,18.50
2018-03-25T16:31:46.942Z,21.03
2018-03-25T16:34:15.986Z,22.07
2018-03-25T16:36:45.377Z,20.90
2018-03-25T16:39:13.615Z,21.57
2018-03-25T16:41:41.889Z,22.30
2018-03-25T16:44:11.477Z,22.60
2018-03-25T16:46:39.998Z,21.63
2018-03-25T16:49:08.449Z,22.00
2018-03-25T16:51:36.688Z,20.27
2018-03-25T16:54:04.939Z,19.67
2018-03-25T16:56:34.712Z,20.40
2018-03-25T16:59:02.954Z,20.73
2018-03-25T17:01:31.580Z,22.73
2018-03-25T17:04:00.248Z,21.60
2018-03-25T17:06:28.504Z,21.33
2018-03-25T17:08:57.500Z,19.47
2018-03-25T17:11:25.942Z,21.40
2018-03-25T17:13:54.954Z,23.33
2018-03-25T17:16:23.205Z,21.57
2018-03-25T17:18:52.183Z,22.67
2018-03-25T17:21:21.180Z,24.20
2018-03-25T17:23:50.195Z,22.33
2018-03-25T17:26:21.148Z,23.10
2018-03-25T17:28:49.266Z,23.10
2018-03-25T17:31:18.268Z,22.50
2018-03-25T17:33:48.162Z,21.97
2018-03-25T17:36:16.268Z,21.67
2018-03-25T17:38:44.509Z,23.20
2018-03-25T17:41:12.773Z,23.00
2018-03-25T17:43:41.017Z,22.73
2018-03-25T17:46:10.399Z,24.40
2018-03-25T17:48:40.198Z,23.27
2018-03-25T17:51:09.579Z,23.23
2018-03-25T17:53:38.572Z,20.60
2018-03-25T17:56:07.064Z,20.80
2018-03-25T17:58:36.808Z,19.63
2018-03-25T18:01:05.451Z,19.67
2018-03-25T18:03:33.735Z,19.70
2018-03-25T18:06:01.983Z,19.53
2018-03-25T18:08:30.227Z,19.43
2018-03-25T18:10:58.492Z,18.40
2018-03-25T18:13:27.506Z,18.90
2018-03-25T18:15:57.093Z,17.70
2018-03-25T18:18:25.984Z,18.90
2018-03-25T18:20:56.306Z,19.43
2018-03-25T18:23:24.757Z,20.73
2018-03-25T18:25:53.422Z,20.60
2018-03-25T18:28:22.000Z,19.13
2018-03-25T18:30:50.992Z,22.13
2018-03-25T18:33:19.334Z,18.87
2018-03-25T18:35:48.676Z,21.97
2018-03-25T18:38:16.883Z,20.73
2018-03-25T18:40:45.162Z,21.13
2018-03-25T18:43:13.400Z,20.63
2018-03-25T18:45:42.778Z,20.30
2018-03-25T18:48:11.054Z,21.00
2018-03-25T18:50:39.293Z,21.53
2018-03-25T18:53:08.293Z,20.60
2018-03-25T18:55:36.570Z,21.70
2018-03-25T18:58:05.575Z,20.67
2018-03-25T19:00:34.573Z,23.40
2018-03-25T19:03:03.118Z,24.63
2018-03-25T19:05:31.765Z,22.57
2018-03-25T19:08:00.000Z,22.67
2018-03-25T19:10:28.660Z,23.47
2018-03-25T19:12:56.908Z,25.03
2018-03-25T19:15:25.155Z,23.57
2018-03-25T19:17:53.449Z,23.50
2018-03-25T19:20:22.461Z,26.23
2018-03-25T19:22:50.697Z,24.30
2018-03-25T19:25:19.737Z,25.57
2018-03-25T19:27:47.983Z,25.17
2018-03-25T19:30:17.577Z,25.10
2018-03-25T19:32:45.739Z,25.60
2018-03-25T19:35:13.976Z,26.97
2018-03-25T19:37:42.209Z,25.50
2018-03-25T19:40:10.822Z,25.43
2018-03-25T19:42:39.467Z,25.07
2018-03-25T19:45:07.701Z,26.90
2018-03-25T19:47:35.982Z,26.10
2018-03-25T19:50:04.216Z,27.40
2018-03-25T19:52:33.218Z,25.13
2018-03-25T19:55:02.055Z,25.10
2018-03-25T19:57:31.066Z,25.53
2018-03-25T20:00:00.455Z,23.97
2018-03-25T20:02:28.726Z,24.57
2018-03-25T20:04:56.957Z,25.30
2018-03-25T20:07:25.189Z,24.13
2018-03-25T20:09:53.784Z,24.37
2018-03-25T20:12:23.530Z,26.10
2018-03-25T20:14:51.764Z,25.47
2018-03-25T20:17:20.036Z,25.13
2018-03-25T20:19:48.287Z,24.17
2018-03-25T20:22:17.304Z,23.80
2018-03-25T20:24:45.881Z,24.87
2018-03-25T20:27:15.643Z,24.30
2018-03-25T20:29:44.269Z,24.67
2018-03-25T20:32:12.619Z,24.57
2018-03-25T20:34:40.814Z,23.50
2018-03-25T20:37:09.050Z,24.00
2018-03-25T20:39:38.880Z,24.67
2018-03-25T20:42:08.146Z,23.77
2018-03-25T20:44:36.389Z,25.63
2018-03-25T20:47:05.438Z,23.57
2018-03-25T20:49:33.687Z,23.57
2018-03-25T20:52:02.684Z,25.17
2018-03-25T20:54:31.145Z,25.40
2018-03-25T20:57:00.155Z,23.43
2018-03-25T20:59:28.800Z,25.80
2018-03-25T21:01:57.503Z,25.70
2018-03-25T21:04:25.739Z,26.47
2018-03-25T21:12:37.904Z,24.63
2018-03-25T21:15:06.904Z,27.20
2018-03-25T21:17:35.967Z,26.70
2018-03-25T21:20:04.356Z,26.70
2018-03-25T21:22:34.097Z,28.40
2018-03-25T21:25:02.729Z,26.00
2018-03-25T21:27:32.352Z,25.80
2018-03-25T21:30:01.230Z,25.93
2018-03-25T21:32:30.364Z,30.37
2018-03-25T21:34:59.661Z,25.87
2018-03-25T21:37:29.038Z,29.70
2018-03-25T21:39:57.273Z,26.90
2018-03-25T21:42:26.390Z,28.30
2018-03-25T21:44:55.024Z,29.27
2018-03-25T21:47:23.260Z,26.47
2018-03-25T21:49:51.521Z,27.27
2018-03-25T21:52:20.819Z,27.77
2018-03-25T21:54:50.561Z,27.67
2018-03-25T21:57:19.842Z,27.20
2018-03-25T21:59:48.840Z,29.20
2018-03-25T22:02:17.845Z,29.83
2018-03-25T22:04:47.008Z,28.77
2018-03-25T22:07:16.744Z,29.67
2018-03-25T22:09:44.980Z,28.40
2018-03-25T22:12:13.258Z,30.07
2018-03-25T22:14:41.510Z,29.50
2018-03-25T22:17:10.884Z,34.07
2018-03-25T22:19:39.407Z,33.03
2018-03-25T22:22:07.649Z,35.13
2018-03-25T22:24:35.885Z,32.40
2018-03-25T22:27:05.414Z,31.23
2018-03-25T22:29:34.040Z,33.93
2018-03-25T22:32:02.281Z,35.20
2018-03-25T22:34:31.328Z,33.30
2018-03-25T22:37:00.328Z,36.37
2018-03-25T22:39:30.081Z,37.10
2018-03-25T22:42:02.824Z,39.60
2018-03-25T22:44:32.289Z,39.57
2018-03-25T22:47:01.752Z,41.27
2018-03-25T22:49:31.252Z,39.50
2018-03-25T22:52:00.720Z,39.33
2018-03-25T22:54:30.189Z,42.27
2018-03-25T22:57:00.316Z,39.57
2018-03-25T22:59:29.781Z,41.13
2018-03-25T23:01:59.243Z,40.87
2018-03-25T23:04:28.748Z,42.47
2018-03-25T23:06:58.207Z,41.97
2018-03-25T23:09:27.675Z,45.00
2018-03-25T23:11:58.020Z,42.40
2018-03-25T23:14:27.485Z,42.13
2018-03-25T23:16:56.953Z,44.67
2018-03-25T23:19:26.448Z,46.77
2018-03-25T23:21:55.915Z,44.43
2018-03-25T23:24:25.418Z,46.80
2018-03-25T23:26:54.977Z,43.77
2018-03-25T23:29:24.440Z,46.67
2018-03-25T23:31:53.944Z,45.47
2018-03-25T23:34:23.894Z,47.27
2018-03-25T23:36:53.362Z,46.03
2018-03-25T23:39:22.827Z,47.00
2018-03-25T23:41:52.327Z,48.10
2018-03-25T23:44:21.794Z,50.47
2018-03-25T23:46:51.256Z,45.23
2018-03-25T23:49:20.768Z,47.63
2018-03-25T23:51:50.228Z,46.60
2018-03-25T23:54:19.716Z,44.73
2018-03-25T23:56:49.468Z,49.63
2018-03-25T23:59:18.928Z,49.03
